sensor_id;sensor_type;location;lat;lon;timestamp;temperature;humidity
57857;DHT22;43683;48.650;9.290;2022-11-24T00:01:18;3.90;92.20
57857;DHT22;43683;48.650;9.290;2022-11-24T00:03:45;3.90;92.30
57857;DHT22;43683;48.650;9.290;2022-11-24T00:06:13;3.80;92.30
57857;DHT22;43683;48.650;9.290;2022-11-24T00:08:41;3.90;92.40
57857;DHT22;43683;48.650;9.290;2022-11-24T00:11:10;3.90;92.30
57857;DHT22;43683;48.650;9.290;2022-11-24T00:13:36;4.00;92.10
57857;DHT22;43683;48.650;9.290;2022-11-24T00:16:07;4.10;91.80
57857;DHT22;43683;48.650;9.290;2022-11-24T00:18:33;4.30;91.60
57857;DHT22;43683;48.650;9.290;2022-11-24T00:20:58;4.50;91.50
57857;DHT22;43683;48.650;9.290;2022-11-24T00:23:24;4.60;91.30
57857;DHT22;43683;48.650;9.290;2022-11-24T00:25:51;4.70;91.20
57857;DHT22;43683;48.650;9.290;2022-11-24T00:28:16;4.80;91.20
57857;DHT22;43683;48.650;9.290;2022-11-24T00:30:42;4.80;91.20
57857;DHT22;43683;48.650;9.290;2022-11-24T00:33:07;4.80;91.30
57857;DHT22;43683;48.650;9.290;2022-11-24T00:35:33;4.70;91.40
57857;DHT22;43683;48.650;9.290;2022-11-24T00:37:58;4.70;91.50
57857;DHT22;43683;48.650;9.290;2022-11-24T00:40:24;4.50;91.70
57857;DHT22;43683;48.650;9.290;2022-11-24T00:42:49;4.40;91.90
57857;DHT22;43683;48.650;9.290;2022-11-24T00:45:15;4.30;92.20
57857;DHT22;43683;48.650;9.290;2022-11-24T00:47:40;4.30;92.30
57857;DHT22;43683;48.650;9.290;2022-11-24T00:50:06;4.40;92.20
57857;DHT22;43683;48.650;9.290;2022-11-24T00:52:31;4.50;92.00
57857;DHT22;43683;48.650;9.290;2022-11-24T00:54:57;4.70;91.80
57857;DHT22;43683;48.650;9.290;2022-11-24T00:57:22;4.80;91.60
57857;DHT22;43683;48.650;9.290;2022-11-24T00:59:48;4.80;91.70
57857;DHT22;43683;48.650;9.290;2022-11-24T01:02:14;4.70;91.90
57857;DHT22;43683;48.650;9.290;2022-11-24T01:04:39;4.70;92.30
57857;DHT22;43683;48.650;9.290;2022-11-24T01:07:05;4.70;92.20
57857;DHT22;43683;48.650;9.290;2022-11-24T01:09:31;4.60;92.30
57857;DHT22;43683;48.650;9.290;2022-11-24T01:11:56;4.60;92.40
57857;DHT22;43683;48.650;9.290;2022-11-24T01:14:29;4.60;92.40
57857;DHT22;43683;48.650;9.290;2022-11-24T01:16:55;4.50;92.50
57857;DHT22;43683;48.650;9.290;2022-11-24T01:19:22;4.40;92.50
57857;DHT22;43683;48.650;9.290;2022-11-24T01:21:47;4.40;92.60
57857;DHT22;43683;48.650;9.290;2022-11-24T01:24:13;4.20;92.70
57857;DHT22;43683;48.650;9.290;2022-11-24T01:26:39;4.00;92.90
57857;DHT22;43683;48.650;9.290;2022-11-24T01:29:05;3.80;93.10
57857;DHT22;43683;48.650;9.290;2022-11-24T01:31:30;3.60;93.30
57857;DHT22;43683;48.650;9.290;2022-11-24T01:33:57;3.40;93.40
57857;DHT22;43683;48.650;9.290;2022-11-24T01:36:22;3.20;93.50
57857;DHT22;43683;48.650;9.290;2022-11-24T01:38:48;3.10;93.60
57857;DHT22;43683;48.650;9.290;2022-11-24T01:41:18;3.00;93.70
57857;DHT22;43683;48.650;9.290;2022-11-24T01:43:45;3.00;93.70
57857;DHT22;43683;48.650;9.290;2022-11-24T01:46:33;3.10;93.50
57857;DHT22;43683;48.650;9.290;2022-11-24T01:51:28;3.20;93.30
57857;DHT22;43683;48.650;9.290;2022-11-24T01:54:03;3.20;93.20
57857;DHT22;43683;48.650;9.290;2022-11-24T01:56:30;3.30;93.10
57857;DHT22;43683;48.650;9.290;2022-11-24T01:59:00;3.30;93.00
57857;DHT22;43683;48.650;9.290;2022-11-24T02:01:26;3.40;93.00
57857;DHT22;43683;48.650;9.290;2022-11-24T02:03:53;3.50;92.90
57857;DHT22;43683;48.650;9.290;2022-11-24T02:06:24;3.60;92.80
57857;DHT22;43683;48.650;9.290;2022-11-24T02:09:01;3.70;92.60
57857;DHT22;43683;48.650;9.290;2022-11-24T02:11:32;3.80;92.50
57857;DHT22;43683;48.650;9.290;2022-11-24T02:13:59;3.90;92.40
57857;DHT22;43683;48.650;9.290;2022-11-24T02:16:25;3.90;92.50
57857;DHT22;43683;48.650;9.290;2022-11-24T02:18:51;3.90;92.60
57857;DHT22;43683;48.650;9.290;2022-11-24T02:21:17;4.00;92.50
57857;DHT22;43683;48.650;9.290;2022-11-24T02:26:43;4.30;92.30
57857;DHT22;43683;48.650;9.290;2022-11-24T02:29:11;4.30;92.30
57857;DHT22;43683;48.650;9.290;2022-11-24T02:31:47;4.20;92.60
57857;DHT22;43683;48.650;9.290;2022-11-24T02:34:13;4.20;92.60
57857;DHT22;43683;48.650;9.290;2022-11-24T02:36:39;4.10;92.70
57857;DHT22;43683;48.650;9.290;2022-11-24T02:39:10;4.00;92.80
57857;DHT22;43683;48.650;9.290;2022-11-24T02:41:36;4.00;93.00
57857;DHT22;43683;48.650;9.290;2022-11-24T02:44:03;3.90;93.10
57857;DHT22;43683;48.650;9.290;2022-11-24T02:46:28;3.80;93.20
57857;DHT22;43683;48.650;9.290;2022-11-24T02:48:54;3.70;93.30
57857;DHT22;43683;48.650;9.290;2022-11-24T02:51:19;3.60;93.40
57857;DHT22;43683;48.650;9.290;2022-11-24T02:53:45;3.50;93.50
57857;DHT22;43683;48.650;9.290;2022-11-24T02:56:10;3.50;93.60
57857;DHT22;43683;48.650;9.290;2022-11-24T02:58:37;3.40;93.70
57857;DHT22;43683;48.650;9.290;2022-11-24T03:01:02;3.40;93.70
57857;DHT22;43683;48.650;9.290;2022-11-24T03:03:28;3.50;93.60
57857;DHT22;43683;48.650;9.290;2022-11-24T03:05:54;3.50;93.80
57857;DHT22;43683;48.650;9.290;2022-11-24T03:08:19;3.50;93.50
57857;DHT22;43683;48.650;9.290;2022-11-24T03:10:45;3.50;93.50
57857;DHT22;43683;48.650;9.290;2022-11-24T03:13:11;3.50;93.50
57857;DHT22;43683;48.650;9.290;2022-11-24T03:15:36;3.50;93.50
57857;DHT22;43683;48.650;9.290;2022-11-24T03:18:02;3.40;93.60
57857;DHT22;43683;48.650;9.290;2022-11-24T03:20:28;3.40;93.60
57857;DHT22;43683;48.650;9.290;2022-11-24T03:22:53;3.40;93.70
57857;DHT22;43683;48.650;9.290;2022-11-24T03:25:19;3.30;93.70
57857;DHT22;43683;48.650;9.290;2022-11-24T03:27:45;3.30;93.70
57857;DHT22;43683;48.650;9.290;2022-11-24T03:30:12;3.30;93.80
57857;DHT22;43683;48.650;9.290;2022-11-24T03:32:37;3.20;93.80
57857;DHT22;43683;48.650;9.290;2022-11-24T03:35:03;3.10;93.80
57857;DHT22;43683;48.650;9.290;2022-11-24T03:37:29;3.00;93.90
57857;DHT22;43683;48.650;9.290;2022-11-24T03:39:55;2.90;94.00
57857;DHT22;43683;48.650;9.290;2022-11-24T03:42:20;2.80;94.00
57857;DHT22;43683;48.650;9.290;2022-11-24T03:44:46;2.70;94.10
57857;DHT22;43683;48.650;9.290;2022-11-24T03:47:12;2.70;94.10
57857;DHT22;43683;48.650;9.290;2022-11-24T03:49:38;2.70;94.00
57857;DHT22;43683;48.650;9.290;2022-11-24T03:52:03;2.70;94.00
57857;DHT22;43683;48.650;9.290;2022-11-24T03:54:29;2.70;94.00
57857;DHT22;43683;48.650;9.290;2022-11-24T03:56:54;2.80;94.00
57857;DHT22;43683;48.650;9.290;2022-11-24T03:59:20;2.90;93.80
57857;DHT22;43683;48.650;9.290;2022-11-24T04:01:45;3.00;93.70
57857;DHT22;43683;48.650;9.290;2022-11-24T04:04:11;3.10;93.50
57857;DHT22;43683;48.650;9.290;2022-11-24T04:06:38;3.20;93.50
57857;DHT22;43683;48.650;9.290;2022-11-24T04:09:04;3.10;93.50
57857;DHT22;43683;48.650;9.290;2022-11-24T04:11:29;3.00;93.60
57857;DHT22;43683;48.650;9.290;2022-11-24T04:14:13;2.90;93.70
57857;DHT22;43683;48.650;9.290;2022-11-24T04:16:39;2.80;93.90
57857;DHT22;43683;48.650;9.290;2022-11-24T04:19:05;2.70;94.00
57857;DHT22;43683;48.650;9.290;2022-11-24T04:21:31;2.60;94.00
57857;DHT22;43683;48.650;9.290;2022-11-24T04:23:56;2.60;94.10
57857;DHT22;43683;48.650;9.290;2022-11-24T04:26:22;2.50;94.20
57857;DHT22;43683;48.650;9.290;2022-11-24T04:28:47;2.40;94.20
57857;DHT22;43683;48.650;9.290;2022-11-24T04:31:13;2.40;94.20
57857;DHT22;43683;48.650;9.290;2022-11-24T04:33:39;2.30;94.20
57857;DHT22;43683;48.650;9.290;2022-11-24T04:36:04;2.40;94.20
57857;DHT22;43683;48.650;9.290;2022-11-24T04:38:30;2.70;94.00
57857;DHT22;43683;48.650;9.290;2022-11-24T04:41:00;2.90;93.80
57857;DHT22;43683;48.650;9.290;2022-11-24T04:43:26;3.10;93.50
57857;DHT22;43683;48.650;9.290;2022-11-24T04:45:52;3.40;93.20
57857;DHT22;43683;48.650;9.290;2022-11-24T04:48:17;3.70;92.90
57857;DHT22;43683;48.650;9.290;2022-11-24T04:50:43;3.90;92.70
57857;DHT22;43683;48.650;9.290;2022-11-24T04:53:10;4.00;92.70
57857;DHT22;43683;48.650;9.290;2022-11-24T04:55:38;4.00;92.80
57857;DHT22;43683;48.650;9.290;2022-11-24T04:58:06;4.00;93.00
57857;DHT22;43683;48.650;9.290;2022-11-24T05:00:32;3.90;93.30
57857;DHT22;43683;48.650;9.290;2022-11-24T05:02:58;3.80;93.50
57857;DHT22;43683;48.650;9.290;2022-11-24T05:05:23;3.70;93.70
57857;DHT22;43683;48.650;9.290;2022-11-24T05:07:49;3.50;93.80
57857;DHT22;43683;48.650;9.290;2022-11-24T05:10:15;3.40;93.90
57857;DHT22;43683;48.650;9.290;2022-11-24T05:12:59;3.30;94.00
57857;DHT22;43683;48.650;9.290;2022-11-24T05:15:25;3.20;94.00
57857;DHT22;43683;48.650;9.290;2022-11-24T05:17:51;3.20;94.00
57857;DHT22;43683;48.650;9.290;2022-11-24T05:20:17;3.20;94.00
57857;DHT22;43683;48.650;9.290;2022-11-24T05:22:43;3.00;94.00
57857;DHT22;43683;48.650;9.290;2022-11-24T05:25:09;2.90;94.10
57857;DHT22;43683;48.650;9.290;2022-11-24T05:27:34;2.80;94.30
57857;DHT22;43683;48.650;9.290;2022-11-24T05:30:00;2.80;94.40
57857;DHT22;43683;48.650;9.290;2022-11-24T05:32:25;2.90;94.40
57857;DHT22;43683;48.650;9.290;2022-11-24T05:34:51;3.00;94.30
57857;DHT22;43683;48.650;9.290;2022-11-24T05:37:18;3.00;94.20
57857;DHT22;43683;48.650;9.290;2022-11-24T05:39:44;3.20;94.20
57857;DHT22;43683;48.650;9.290;2022-11-24T05:42:09;3.40;93.90
57857;DHT22;43683;48.650;9.290;2022-11-24T05:44:53;3.60;93.70
57857;DHT22;43683;48.650;9.290;2022-11-24T05:47:19;3.70;93.60
57857;DHT22;43683;48.650;9.290;2022-11-24T05:49:45;3.80;93.60
57857;DHT22;43683;48.650;9.290;2022-11-24T05:52:11;3.80;93.60
57857;DHT22;43683;48.650;9.290;2022-11-24T05:54:36;3.90;93.60
57857;DHT22;43683;48.650;9.290;2022-11-24T05:57:02;3.90;93.70
57857;DHT22;43683;48.650;9.290;2022-11-24T05:59:28;3.90;93.70
57857;DHT22;43683;48.650;9.290;2022-11-24T06:01:53;3.80;93.80
57857;DHT22;43683;48.650;9.290;2022-11-24T06:04:19;3.70;93.90
57857;DHT22;43683;48.650;9.290;2022-11-24T06:06:45;3.50;94.10
57857;DHT22;43683;48.650;9.290;2022-11-24T06:09:11;3.40;94.20
57857;DHT22;43683;48.650;9.290;2022-11-24T06:11:37;3.40;94.30
57857;DHT22;43683;48.650;9.290;2022-11-24T06:14:02;3.40;94.30
57857;DHT22;43683;48.650;9.290;2022-11-24T06:16:28;3.30;94.30
57857;DHT22;43683;48.650;9.290;2022-11-24T06:18:53;3.30;94.30
57857;DHT22;43683;48.650;9.290;2022-11-24T06:21:19;3.30;94.20
57857;DHT22;43683;48.650;9.290;2022-11-24T06:23:48;3.40;94.20
57857;DHT22;43683;48.650;9.290;2022-11-24T06:26:14;3.40;94.10
57857;DHT22;43683;48.650;9.290;2022-11-24T06:28:39;3.50;94.00
57857;DHT22;43683;48.650;9.290;2022-11-24T06:31:05;3.70;94.00
57857;DHT22;43683;48.650;9.290;2022-11-24T06:33:35;3.90;93.80
57857;DHT22;43683;48.650;9.290;2022-11-24T06:36:02;4.00;93.60
57857;DHT22;43683;48.650;9.290;2022-11-24T06:38:29;4.20;93.50
57857;DHT22;43683;48.650;9.290;2022-11-24T06:40:59;4.40;93.40
57857;DHT22;43683;48.650;9.290;2022-11-24T06:43:26;4.50;93.40
57857;DHT22;43683;48.650;9.290;2022-11-24T06:45:52;4.60;93.40
57857;DHT22;43683;48.650;9.290;2022-11-24T06:48:17;4.80;93.40
57857;DHT22;43683;48.650;9.290;2022-11-24T06:50:43;4.90;93.40
57857;DHT22;43683;48.650;9.290;2022-11-24T06:53:08;4.90;93.40
57857;DHT22;43683;48.650;9.290;2022-11-24T06:55:34;5.00;93.40
57857;DHT22;43683;48.650;9.290;2022-11-24T06:58:00;5.10;93.30
57857;DHT22;43683;48.650;9.290;2022-11-24T07:00:25;5.20;93.30
57857;DHT22;43683;48.650;9.290;2022-11-24T07:02:53;5.30;93.30
57857;DHT22;43683;48.650;9.290;2022-11-24T07:05:18;5.30;93.30
57857;DHT22;43683;48.650;9.290;2022-11-24T07:07:44;5.40;93.30
57857;DHT22;43683;48.650;9.290;2022-11-24T07:10:10;5.40;93.30
57857;DHT22;43683;48.650;9.290;2022-11-24T07:12:35;5.40;93.30
57857;DHT22;43683;48.650;9.290;2022-11-24T07:15:01;5.50;93.30
57857;DHT22;43683;48.650;9.290;2022-11-24T07:17:26;5.40;93.30
57857;DHT22;43683;48.650;9.290;2022-11-24T07:19:52;5.40;93.20
57857;DHT22;43683;48.650;9.290;2022-11-24T07:22:17;5.50;93.20
57857;DHT22;43683;48.650;9.290;2022-11-24T07:24:43;5.50;93.20
57857;DHT22;43683;48.650;9.290;2022-11-24T07:27:08;5.50;93.20
57857;DHT22;43683;48.650;9.290;2022-11-24T07:29:34;5.50;93.20
57857;DHT22;43683;48.650;9.290;2022-11-24T07:31:59;5.60;93.20
57857;DHT22;43683;48.650;9.290;2022-11-24T07:34:25;5.60;93.10
57857;DHT22;43683;48.650;9.290;2022-11-24T07:36:50;5.70;93.10
57857;DHT22;43683;48.650;9.290;2022-11-24T07:39:16;5.70;93.00
57857;DHT22;43683;48.650;9.290;2022-11-24T07:41:42;5.70;93.00
57857;DHT22;43683;48.650;9.290;2022-11-24T07:44:07;5.70;93.00
57857;DHT22;43683;48.650;9.290;2022-11-24T07:46:33;5.70;92.90
57857;DHT22;43683;48.650;9.290;2022-11-24T07:48:58;5.70;92.80
57857;DHT22;43683;48.650;9.290;2022-11-24T07:51:24;5.70;92.80
57857;DHT22;43683;48.650;9.290;2022-11-24T07:53:49;5.70;92.80
57857;DHT22;43683;48.650;9.290;2022-11-24T07:56:15;5.70;92.80
57857;DHT22;43683;48.650;9.290;2022-11-24T07:58:40;5.70;92.80
57857;DHT22;43683;48.650;9.290;2022-11-24T08:01:16;5.70;92.80
57857;DHT22;43683;48.650;9.290;2022-11-24T08:03:43;5.80;92.80
57857;DHT22;43683;48.650;9.290;2022-11-24T08:06:09;5.80;92.70
57857;DHT22;43683;48.650;9.290;2022-11-24T08:08:35;5.80;92.70
57857;DHT22;43683;48.650;9.290;2022-11-24T08:11:06;5.90;92.70
57857;DHT22;43683;48.650;9.290;2022-11-24T08:13:32;5.90;92.60
57857;DHT22;43683;48.650;9.290;2022-11-24T08:15:57;6.00;92.60
57857;DHT22;43683;48.650;9.290;2022-11-24T08:18:23;6.00;92.60
57857;DHT22;43683;48.650;9.290;2022-11-24T08:20:49;6.00;92.60
57857;DHT22;43683;48.650;9.290;2022-11-24T08:23:14;6.10;92.60
57857;DHT22;43683;48.650;9.290;2022-11-24T08:25:40;6.10;92.50
57857;DHT22;43683;48.650;9.290;2022-11-24T08:28:05;6.20;92.60
57857;DHT22;43683;48.650;9.290;2022-11-24T08:30:31;6.20;92.60
57857;DHT22;43683;48.650;9.290;2022-11-24T08:33:00;6.20;92.60
57857;DHT22;43683;48.650;9.290;2022-11-24T08:35:26;6.30;92.60
57857;DHT22;43683;48.650;9.290;2022-11-24T08:37:52;6.30;92.60
57857;DHT22;43683;48.650;9.290;2022-11-24T08:40:18;6.30;92.70
57857;DHT22;43683;48.650;9.290;2022-11-24T08:42:44;6.30;92.70
57857;DHT22;43683;48.650;9.290;2022-11-24T08:45:10;6.40;92.70
57857;DHT22;43683;48.650;9.290;2022-11-24T08:47:35;6.40;92.70
57857;DHT22;43683;48.650;9.290;2022-11-24T08:50:01;6.40;92.70
57857;DHT22;43683;48.650;9.290;2022-11-24T08:52:26;6.50;92.70
57857;DHT22;43683;48.650;9.290;2022-11-24T08:54:52;6.50;92.70
57857;DHT22;43683;48.650;9.290;2022-11-24T08:57:18;6.50;92.70
57857;DHT22;43683;48.650;9.290;2022-11-24T08:59:44;6.60;92.60
57857;DHT22;43683;48.650;9.290;2022-11-24T09:02:11;6.60;92.60
57857;DHT22;43683;48.650;9.290;2022-11-24T09:04:37;6.70;92.60
57857;DHT22;43683;48.650;9.290;2022-11-24T09:07:03;6.70;92.50
57857;DHT22;43683;48.650;9.290;2022-11-24T09:09:28;6.80;92.60
57857;DHT22;43683;48.650;9.290;2022-11-24T09:11:54;6.90;92.50
57857;DHT22;43683;48.650;9.290;2022-11-24T09:14:20;7.00;92.50
57857;DHT22;43683;48.650;9.290;2022-11-24T09:16:45;7.20;92.30
57857;DHT22;43683;48.650;9.290;2022-11-24T09:19:11;7.50;92.20
57857;DHT22;43683;48.650;9.290;2022-11-24T09:21:36;7.70;92.00
57857;DHT22;43683;48.650;9.290;2022-11-24T09:24:04;7.90;91.90
57857;DHT22;43683;48.650;9.290;2022-11-24T09:26:33;8.00;91.70
57857;DHT22;43683;48.650;9.290;2022-11-24T09:28:59;8.10;91.60
57857;DHT22;43683;48.650;9.290;2022-11-24T09:31:28;8.10;91.80
57857;DHT22;43683;48.650;9.290;2022-11-24T09:33:54;8.20;91.50
57857;DHT22;43683;48.650;9.290;2022-11-24T09:36:20;8.30;91.40
57857;DHT22;43683;48.650;9.290;2022-11-24T09:38:46;8.30;91.40
57857;DHT22;43683;48.650;9.290;2022-11-24T09:44:08;8.30;91.40
57857;DHT22;43683;48.650;9.290;2022-11-24T09:46:52;8.20;91.30
57857;DHT22;43683;48.650;9.290;2022-11-24T09:49:29;8.10;91.30
57857;DHT22;43683;48.650;9.290;2022-11-24T09:51:57;8.20;91.30
57857;DHT22;43683;48.650;9.290;2022-11-24T09:54:27;8.20;91.20
57857;DHT22;43683;48.650;9.290;2022-11-24T09:56:55;8.20;91.20
57857;DHT22;43683;48.650;9.290;2022-11-24T09:59:23;8.20;91.60
57857;DHT22;43683;48.650;9.290;2022-11-24T10:01:50;8.20;91.30
57857;DHT22;43683;48.650;9.290;2022-11-24T10:04:24;8.20;91.20
57857;DHT22;43683;48.650;9.290;2022-11-24T10:07:21;8.20;91.10
57857;DHT22;43683;48.650;9.290;2022-11-24T10:15:29;8.90;90.30
57857;DHT22;43683;48.650;9.290;2022-11-24T10:18:59;9.10;90.20
57857;DHT22;43683;48.650;9.290;2022-11-24T10:21:43;9.40;90.00
57857;DHT22;43683;48.650;9.290;2022-11-24T10:27:27;9.40;89.90
57857;DHT22;43683;48.650;9.290;2022-11-24T10:29:55;9.20;90.20
57857;DHT22;43683;48.650;9.290;2022-11-24T10:32:40;8.90;90.50
57857;DHT22;43683;48.650;9.290;2022-11-24T10:35:20;8.70;90.90
57857;DHT22;43683;48.650;9.290;2022-11-24T10:41:15;8.80;90.90
57857;DHT22;43683;48.650;9.290;2022-11-24T10:43:43;8.90;90.90
57857;DHT22;43683;48.650;9.290;2022-11-24T10:46:20;8.90;90.80
57857;DHT22;43683;48.650;9.290;2022-11-24T10:48:49;8.80;91.00
57857;DHT22;43683;48.650;9.290;2022-11-24T10:51:38;8.70;91.10
57857;DHT22;43683;48.650;9.290;2022-11-24T10:54:17;8.80;91.10
57857;DHT22;43683;48.650;9.290;2022-11-24T10:56:44;8.90;91.00
57857;DHT22;43683;48.650;9.290;2022-11-24T10:59:30;8.90;90.90
57857;DHT22;43683;48.650;9.290;2022-11-24T11:01:57;9.10;91.10
57857;DHT22;43683;48.650;9.290;2022-11-24T11:04:28;9.30;91.20
57857;DHT22;43683;48.650;9.290;2022-11-24T11:07:18;9.60;91.40
57857;DHT22;43683;48.650;9.290;2022-11-24T11:09:44;10.10;91.60
57857;DHT22;43683;48.650;9.290;2022-11-24T11:12:21;10.50;91.60
57857;DHT22;43683;48.650;9.290;2022-11-24T11:14:48;11.00;91.50
57857;DHT22;43683;48.650;9.290;2022-11-24T11:17:37;11.30;91.30
57857;DHT22;43683;48.650;9.290;2022-11-24T11:20:05;11.30;90.90
57857;DHT22;43683;48.650;9.290;2022-11-24T11:22:34;11.30;90.60
57857;DHT22;43683;48.650;9.290;2022-11-24T11:27:35;11.80;90.10
57857;DHT22;43683;48.650;9.290;2022-11-24T11:32:52;12.80;86.90
57857;DHT22;43683;48.650;9.290;2022-11-24T11:35:18;12.10;88.60
57857;DHT22;43683;48.650;9.290;2022-11-24T11:37:44;11.70;89.60
57857;DHT22;43683;48.650;9.290;2022-11-24T11:40:16;11.40;90.00
57857;DHT22;43683;48.650;9.290;2022-11-24T11:42:56;11.00;90.20
57857;DHT22;43683;48.650;9.290;2022-11-24T11:45:27;11.00;90.10
57857;DHT22;43683;48.650;9.290;2022-11-24T11:48:24;11.60;88.60
57857;DHT22;43683;48.650;9.290;2022-11-24T11:56:00;12.80;85.30
57857;DHT22;43683;48.650;9.290;2022-11-24T12:04:19;12.20;86.30
57857;DHT22;43683;48.650;9.290;2022-11-24T12:07:28;12.10;86.30
57857;DHT22;43683;48.650;9.290;2022-11-24T12:15:43;12.80;84.60
57857;DHT22;43683;48.650;9.290;2022-11-24T12:26:18;12.80;84.10
57857;DHT22;43683;48.650;9.290;2022-11-24T12:46:00;12.10;83.00
57857;DHT22;43683;48.650;9.290;2022-11-24T12:51:17;11.60;83.00
57857;DHT22;43683;48.650;9.290;2022-11-24T12:53:48;11.40;83.40
57857;DHT22;43683;48.650;9.290;2022-11-24T12:56:17;11.30;83.30
57857;DHT22;43683;48.650;9.290;2022-11-24T12:59:10;11.20;83.00
57857;DHT22;43683;48.650;9.290;2022-11-24T13:01:45;11.20;82.30
57857;DHT22;43683;48.650;9.290;2022-11-24T13:04:33;11.20;81.90
57857;DHT22;43683;48.650;9.290;2022-11-24T13:07:15;11.30;81.00
57857;DHT22;43683;48.650;9.290;2022-11-24T13:15:24;11.40;80.30
57857;DHT22;43683;48.650;9.290;2022-11-24T13:17:51;11.40;80.40
57857;DHT22;43683;48.650;9.290;2022-11-24T13:22:48;11.90;79.70
57857;DHT22;43683;48.650;9.290;2022-11-24T13:25:23;12.40;78.50
57857;DHT22;43683;48.650;9.290;2022-11-24T13:27:53;12.50;78.10
57857;DHT22;43683;48.650;9.290;2022-11-24T13:41:09;11.70;79.60
57857;DHT22;43683;48.650;9.290;2022-11-24T13:43:35;11.60;80.00
57857;DHT22;43683;48.650;9.290;2022-11-24T13:46:02;11.80;80.00
57857;DHT22;43683;48.650;9.290;2022-11-24T13:53:45;12.80;78.00
57857;DHT22;43683;48.650;9.290;2022-11-24T13:58:51;12.80;76.60
57857;DHT22;43683;48.650;9.290;2022-11-24T14:01:29;12.70;76.50
57857;DHT22;43683;48.650;9.290;2022-11-24T14:03:57;12.40;76.50
57857;DHT22;43683;48.650;9.290;2022-11-24T14:06:36;12.00;77.10
57857;DHT22;43683;48.650;9.290;2022-11-24T14:09:18;11.60;76.60
57857;DHT22;43683;48.650;9.290;2022-11-24T14:14:38;10.80;77.90
57857;DHT22;43683;48.650;9.290;2022-11-24T14:17:16;10.60;78.40
57857;DHT22;43683;48.650;9.290;2022-11-24T14:19:44;10.60;78.20
57857;DHT22;43683;48.650;9.290;2022-11-24T14:22:15;10.50;78.10
57857;DHT22;43683;48.650;9.290;2022-11-24T14:24:44;10.40;78.00
57857;DHT22;43683;48.650;9.290;2022-11-24T14:27:14;10.20;78.50
57857;DHT22;43683;48.650;9.290;2022-11-24T14:30:00;10.00;79.10
57857;DHT22;43683;48.650;9.290;2022-11-24T14:32:27;9.70;79.40
57857;DHT22;43683;48.650;9.290;2022-11-24T14:34:52;9.60;80.20
57857;DHT22;43683;48.650;9.290;2022-11-24T14:37:19;9.60;80.50
57857;DHT22;43683;48.650;9.290;2022-11-24T14:39:44;9.70;80.70
57857;DHT22;43683;48.650;9.290;2022-11-24T14:42:22;9.70;80.90
57857;DHT22;43683;48.650;9.290;2022-11-24T14:44:56;9.70;80.70
57857;DHT22;43683;48.650;9.290;2022-11-24T14:47:34;9.60;80.40
57857;DHT22;43683;48.650;9.290;2022-11-24T14:50:11;9.50;80.10
57857;DHT22;43683;48.650;9.290;2022-11-24T14:52:45;9.30;80.30
57857;DHT22;43683;48.650;9.290;2022-11-24T14:55:27;9.10;80.50
57857;DHT22;43683;48.650;9.290;2022-11-24T14:57:53;8.90;80.70
57857;DHT22;43683;48.650;9.290;2022-11-24T15:03:06;8.60;80.90
57857;DHT22;43683;48.650;9.290;2022-11-24T15:05:55;8.60;80.80
57857;DHT22;43683;48.650;9.290;2022-11-24T15:08:23;8.70;80.40
57857;DHT22;43683;48.650;9.290;2022-11-24T15:10:56;8.60;80.20
57857;DHT22;43683;48.650;9.290;2022-11-24T15:13:24;8.60;80.20
57857;DHT22;43683;48.650;9.290;2022-11-24T15:15:58;8.50;80.30
57857;DHT22;43683;48.650;9.290;2022-11-24T15:18:36;8.50;80.40
57857;DHT22;43683;48.650;9.290;2022-11-24T15:21:02;8.40;81.10
57857;DHT22;43683;48.650;9.290;2022-11-24T15:23:34;8.30;80.50
57857;DHT22;43683;48.650;9.290;2022-11-24T15:28:26;8.10;80.90
57857;DHT22;43683;48.650;9.290;2022-11-24T15:30:54;8.00;81.00
57857;DHT22;43683;48.650;9.290;2022-11-24T15:33:21;7.90;81.10
57857;DHT22;43683;48.650;9.290;2022-11-24T15:35:47;7.80;81.40
57857;DHT22;43683;48.650;9.290;2022-11-24T15:38:13;7.60;81.80
57857;DHT22;43683;48.650;9.290;2022-11-24T15:40:42;7.30;82.30
57857;DHT22;43683;48.650;9.290;2022-11-24T15:45:54;6.90;83.40
57857;DHT22;43683;48.650;9.290;2022-11-24T15:48:20;6.60;84.00
57857;DHT22;43683;48.650;9.290;2022-11-24T15:50:46;6.30;84.60
57857;DHT22;43683;48.650;9.290;2022-11-24T15:55:52;5.70;86.50
57857;DHT22;43683;48.650;9.290;2022-11-24T15:58:20;5.40;86.80
57857;DHT22;43683;48.650;9.290;2022-11-24T16:00:46;5.20;87.20
57857;DHT22;43683;48.650;9.290;2022-11-24T16:03:11;5.00;87.70
57857;DHT22;43683;48.650;9.290;2022-11-24T16:05:37;4.80;88.10
57857;DHT22;43683;48.650;9.290;2022-11-24T16:08:05;4.60;88.40
57857;DHT22;43683;48.650;9.290;2022-11-24T16:10:33;4.40;88.70
57857;DHT22;43683;48.650;9.290;2022-11-24T16:13:00;4.30;89.10
57857;DHT22;43683;48.650;9.290;2022-11-24T16:15:26;4.20;89.20
57857;DHT22;43683;48.650;9.290;2022-11-24T16:17:51;4.10;89.40
57857;DHT22;43683;48.650;9.290;2022-11-24T16:20:17;4.00;89.50
57857;DHT22;43683;48.650;9.290;2022-11-24T16:22:43;3.90;89.80
57857;DHT22;43683;48.650;9.290;2022-11-24T16:25:08;3.70;90.00
57857;DHT22;43683;48.650;9.290;2022-11-24T16:27:34;3.60;90.10
57857;DHT22;43683;48.650;9.290;2022-11-24T16:30:00;3.50;90.20
57857;DHT22;43683;48.650;9.290;2022-11-24T16:32:28;3.30;90.20
57857;DHT22;43683;48.650;9.290;2022-11-24T16:34:54;3.20;90.30
57857;DHT22;43683;48.650;9.290;2022-11-24T16:37:19;3.20;90.30
57857;DHT22;43683;48.650;9.290;2022-11-24T16:39:48;3.10;90.30
57857;DHT22;43683;48.650;9.290;2022-11-24T16:42:14;3.10;90.40
57857;DHT22;43683;48.650;9.290;2022-11-24T16:44:40;3.10;90.50
57857;DHT22;43683;48.650;9.290;2022-11-24T16:47:05;3.10;90.40
57857;DHT22;43683;48.650;9.290;2022-11-24T16:49:31;3.00;90.40
57857;DHT22;43683;48.650;9.290;2022-11-24T16:51:57;3.00;90.60
57857;DHT22;43683;48.650;9.290;2022-11-24T16:54:22;3.10;90.50
57857;DHT22;43683;48.650;9.290;2022-11-24T16:56:48;3.10;90.40
57857;DHT22;43683;48.650;9.290;2022-11-24T16:59:13;3.00;90.40
57857;DHT22;43683;48.650;9.290;2022-11-24T17:01:39;3.00;90.50
57857;DHT22;43683;48.650;9.290;2022-11-24T17:04:05;3.00;90.60
57857;DHT22;43683;48.650;9.290;2022-11-24T17:06:31;2.90;90.60
57857;DHT22;43683;48.650;9.290;2022-11-24T17:08:58;2.80;90.60
57857;DHT22;43683;48.650;9.290;2022-11-24T17:11:25;2.80;90.70
57857;DHT22;43683;48.650;9.290;2022-11-24T17:13:51;2.70;90.80
57857;DHT22;43683;48.650;9.290;2022-11-24T17:16:19;2.70;90.90
57857;DHT22;43683;48.650;9.290;2022-11-24T17:18:45;2.70;90.90
57857;DHT22;43683;48.650;9.290;2022-11-24T17:21:16;2.60;90.90
57857;DHT22;43683;48.650;9.290;2022-11-24T17:23:42;2.60;91.00
57857;DHT22;43683;48.650;9.290;2022-11-24T17:26:15;2.60;91.00
57857;DHT22;43683;48.650;9.290;2022-11-24T17:28:42;2.60;91.00
57857;DHT22;43683;48.650;9.290;2022-11-24T17:31:30;2.60;91.00
57857;DHT22;43683;48.650;9.290;2022-11-24T17:33:57;2.60;91.00
57857;DHT22;43683;48.650;9.290;2022-11-24T17:36:24;2.50;91.00
57857;DHT22;43683;48.650;9.290;2022-11-24T17:38:49;2.50;91.10
57857;DHT22;43683;48.650;9.290;2022-11-24T17:41:19;2.50;91.20
57857;DHT22;43683;48.650;9.290;2022-11-24T17:43:51;2.50;91.30